Souda — SVBH5 — position and weather

sailwx.info

Track history (hours):
 
Tides and Currents Weather Stations Pressure Air Temp Water Temp Dewpoint Dewpoint Depression Visibility Wind Speed Wind Dir Waves Ship Positions

Souda

Last reported at 2016-Aug-30 10:28 UTC. Time now 2016-Aug-30 10:54 UTC.
Position N 40°38' E 022°53'.

Length 88 m; draft 6.6 m.

Type: Tanker. MMSI: 241109000.

Date/timePositionNaut miles runAvg speedWind from/ knotsBaromVisibWave heightAir tempDewpointWater temp
2016-Aug-30 10:28N 40°38' E 022°53'0 0.0
2016-Aug-30 09:28N 40°38' E 022°53'0 0.0
2016-Aug-30 08:31N 40°38' E 022°53'0 0.0
2016-Aug-30 07:31N 40°38' E 022°53'0 0.0
2016-Aug-30 06:31N 40°38' E 022°53'0 0.0
2016-Aug-30 05:33N 40°38' E 022°53'2 2.3
2016-Aug-30 04:33N 40°36' E 022°55'0 0.3
2016-Aug-30 03:29N 40°36' E 022°56'0 0.0
2016-Aug-30 02:29N 40°36' E 022°56'0 0.1
2016-Aug-30 01:32N 40°36' E 022°56'0 0.0
2016-Aug-30 00:32N 40°36' E 022°56'0 0.1
2016-Aug-29 23:33N 40°36' E 022°56'6 5.6
2016-Aug-29 22:33N 40°32' E 022°51'182 7.0
2016-Aug-28 20:33N 37°37' E 023°53'9 9.0
2016-Aug-28 19:33N 37°40' E 023°42'9 9.0
2016-Aug-28 18:33N 37°48' E 023°37'8 8.4
2016-Aug-28 17:33N 37°50' E 023°27'9 8.7
2016-Aug-28 16:33N 37°52' E 023°16'9 8.6
2016-Aug-28 15:33N 37°54' E 023°06'1 0.0
2016-Aug-27 12:18N 37°55' E 023°05'0 0.0
2016-Aug-27 08:24N 37°55' E 023°05'0 0.0
2016-Aug-27 04:24N 37°55' E 023°05'0 0.0
2016-Aug-27 03:30N 37°55' E 023°05'0 0.0
2016-Aug-27 00:30N 37°55' E 023°05'0 0.0
2016-Aug-26 23:30N 37°55' E 023°05'0 0.0
2016-Aug-26 22:30N 37°55' E 023°05'0 0.0
2016-Aug-26 21:30N 37°55' E 023°05'0 0.0
2016-Aug-26 16:15N 37°55' E 023°05'0 0.0
2016-Aug-26 12:33N 37°55' E 023°05'0 0.3
2016-Aug-26 11:19N 37°55' E 023°06'0 0.0
2016-Aug-26 10:31N 37°55' E 023°06'0 0.0
2016-Aug-26 09:33N 37°55' E 023°06'4 3.8
2016-Aug-26 08:33N 37°53' E 023°10'9 9.5
2016-Aug-26 07:34N 37°51' E 023°22'9 8.9
2016-Aug-26 06:33N 37°51' E 023°33'7 3.4
2016-Aug-26 04:31N 37°57' E 023°35'0 0.0
2016-Aug-26 03:31N 37°57' E 023°35'0 0.0
2016-Aug-26 02:28N 37°57' E 023°35'0 0.0
2016-Aug-26 01:31N 37°57' E 023°35'0 0.0
2016-Aug-26 00:31N 37°57' E 023°35'0 0.0
2016-Aug-25 23:31N 37°57' E 023°35'0 0.0
2016-Aug-25 22:31N 37°57' E 023°35'0 0.0
2016-Aug-25 21:31N 37°57' E 023°35'0 0.0
2016-Aug-25 20:31N 37°57' E 023°35'0 0.0
2016-Aug-25 19:31N 37°57' E 023°35'0 0.0
2016-Aug-25 18:31N 37°57' E 023°35'0 0.0
2016-Aug-25 17:31N 37°57' E 023°35'0 0.0
2016-Aug-25 16:31N 37°57' E 023°35'0 0.0
2016-Aug-25 15:31N 37°57' E 023°35'0 0.0
2016-Aug-25 14:31N 37°57' E 023°35'0 0.0
2016-Aug-25 13:31N 37°57' E 023°35'0 0.0
2016-Aug-25 12:31N 37°57' E 023°35'0 0.0
2016-Aug-25 11:31N 37°57' E 023°35'0 0.0
2016-Aug-25 10:31N 37°57' E 023°35'0 0.0
2016-Aug-25 09:31N 37°57' E 023°35'0 0.0
2016-Aug-25 08:31N 37°57' E 023°35'0 0.0
2016-Aug-25 07:31N 37°57' E 023°35'0 0.0
2016-Aug-25 06:31N 37°57' E 023°35'0 0.0
2016-Aug-25 04:25N 37°57' E 023°35'0 0.0
2016-Aug-25 03:28N 37°57' E 023°35'0 0.0
2016-Aug-25 02:31N 37°57' E 023°35'0 0.0
2016-Aug-25 01:31N 37°57' E 023°35'0 0.0
2016-Aug-25 00:31N 37°57' E 023°35'0 0.0
2016-Aug-24 23:31N 37°57' E 023°35'0 0.0
2016-Aug-24 22:31N 37°57' E 023°35'0 0.0
2016-Aug-24 21:31N 37°57' E 023°35'0 0.0
2016-Aug-24 20:31N 37°57' E 023°35'0 0.0
2016-Aug-24 19:31N 37°57' E 023°35'0 0.0
2016-Aug-24 18:28N 37°57' E 023°35'0 0.0
2016-Aug-24 17:31N 37°57' E 023°35'0 0.0
2016-Aug-24 16:31N 37°57' E 023°35'0 0.0
2016-Aug-24 15:31N 37°57' E 023°35'0 0.0
2016-Aug-24 14:31N 37°57' E 023°35'0 0.0
2016-Aug-24 13:28N 37°57' E 023°35'0 0.0
2016-Aug-24 12:31N 37°57' E 023°35'0 0.0
2016-Aug-24 11:31N 37°57' E 023°35'0 0.0
2016-Aug-24 10:31N 37°57' E 023°35'0 0.0
2016-Aug-24 09:31N 37°57' E 023°35'0 0.1
2016-Aug-24 08:31N 37°57' E 023°35'0 0.0
2016-Aug-24 07:31N 37°57' E 023°35'0 0.0
2016-Aug-24 06:31N 37°57' E 023°35'0 0.0
2016-Aug-24 04:31N 37°57' E 023°35'0 0.0
2016-Aug-24 03:28N 37°57' E 023°35'0 0.0
2016-Aug-24 02:28N 37°57' E 023°35'0 0.0
2016-Aug-24 01:31N 37°57' E 023°35'0 0.0
2016-Aug-24 00:31N 37°57' E 023°35'0 0.0
2016-Aug-23 23:31N 37°57' E 023°35'0 0.0
2016-Aug-23 22:31N 37°57' E 023°35'0 0.0
2016-Aug-23 21:28N 37°57' E 023°35'0 0.0
2016-Aug-23 20:31N 37°57' E 023°35'0 0.0
2016-Aug-23 19:31N 37°57' E 023°35'0 0.0
2016-Aug-23 18:31N 37°57' E 023°35'0 0.0
2016-Aug-23 17:31N 37°57' E 023°35'0 0.0
2016-Aug-23 16:25N 37°57' E 023°35'0 0.0
2016-Aug-23 15:28N 37°57' E 023°35'0 0.0
2016-Aug-23 14:28N 37°57' E 023°35'0 0.0
2016-Aug-23 13:31N 37°57' E 023°35'0 0.0
2016-Aug-23 12:28N 37°57' E 023°35'0 0.0
2016-Aug-23 11:31N 37°57' E 023°35'0 0.0
2016-Aug-23 10:31N 37°57' E 023°35'0 0.0
2016-Aug-23 09:31N 37°57' E 023°35'0 0.0
2016-Aug-23 08:31N 37°57' E 023°35'0 0.0
2016-Aug-23 07:31N 37°57' E 023°35'0 0.0
2016-Aug-23 06:31N 37°57' E 023°35'2 2.5
2016-Aug-23 05:33N 37°55' E 023°34'2 1.6
2016-Aug-23 04:32N 37°54' E 023°33'0 0.0
2016-Aug-23 03:32N 37°54' E 023°33'0 0.0
2016-Aug-23 02:32N 37°54' E 023°33'0 0.0
2016-Aug-23 01:32N 37°54' E 023°33'0 0.0
2016-Aug-23 00:32N 37°54' E 023°33'0 0.0
2016-Aug-22 23:32N 37°54' E 023°33'0 0.0
2016-Aug-22 22:32N 37°54' E 023°33'0 0.0
2016-Aug-22 21:32N 37°54' E 023°33'0 0.0
2016-Aug-22 20:32N 37°54' E 023°33'0 0.0
2016-Aug-22 19:32N 37°54' E 023°33'0 0.0
2016-Aug-22 18:32N 37°54' E 023°33'0 0.0
2016-Aug-22 17:32N 37°54' E 023°33'0 0.0
2016-Aug-22 16:32N 37°54' E 023°33'0 0.0
2016-Aug-22 15:32N 37°54' E 023°33'0 0.0
2016-Aug-22 14:32N 37°54' E 023°33'0 0.4
2016-Aug-22 13:34N 37°54' E 023°33'5 5.0
2016-Aug-22 12:33N 37°50' E 023°29'9 9.4
2016-Aug-22 11:33N 37°52' E 023°17'9 9.0
2016-Aug-22 10:34N 37°54' E 023°06'1 0.0
2016-Aug-21 10:33N 37°55' E 023°05'0 0.1
2016-Aug-21 09:33N 37°55' E 023°05'1 0.5
2016-Aug-21 08:33N 37°55' E 023°05'0 0.4
2016-Aug-21 07:28N 37°54' E 023°05'0 0.0
2016-Aug-21 06:28N 37°54' E 023°05'0 0.0
2016-Aug-21 05:31N 37°54' E 023°05'0 0.0
2016-Aug-21 04:31N 37°54' E 023°05'0 0.0
2016-Aug-21 03:31N 37°54' E 023°05'0 0.0
2016-Aug-21 02:28N 37°54' E 023°05'0 0.0
2016-Aug-21 01:31N 37°54' E 023°05'0 0.0
2016-Aug-21 00:31N 37°54' E 023°05'0 0.1
2016-Aug-20 23:28N 37°54' E 023°05'0 0.0
2016-Aug-20 22:31N 37°54' E 023°05'0 0.0
2016-Aug-20 21:31N 37°54' E 023°05'0 0.0
2016-Aug-20 20:28N 37°54' E 023°05'0 0.0
2016-Aug-20 19:22N 37°54' E 023°05'0 0.0
2016-Aug-20 18:28N 37°54' E 023°05'0 0.0
2016-Aug-20 17:28N 37°54' E 023°05'0 0.0
2016-Aug-20 16:28N 37°54' E 023°05'0 0.0
2016-Aug-20 15:31N 37°54' E 023°05'0 0.1
2016-Aug-20 14:31N 37°54' E 023°05'0 0.0
2016-Aug-20 11:16N 37°54' E 023°05'0 0.6
2016-Aug-20 10:33N 37°54' E 023°05'  
Track history (hours):
 
Tides and Currents Weather Stations Pressure Air Temp Water Temp Dewpoint Dewpoint Depression Visibility Wind Speed Wind Dir Waves Ship Positions

Souda

Last reported at 2016-Aug-30 10:28 UTC. Time now 2016-Aug-30 10:54 UTC.
Position N 40°38' E 022°53'.

Length 88 m; draft 6.6 m.

Type: Tanker. MMSI: 241109000.

Date/timePositionNaut miles runAvg speedWind from/ knotsBaromVisibWave heightAir tempDewpointWater temp
2016-Aug-30 10:28N 40°38' E 022°53'0 0.0
2016-Aug-30 09:28N 40°38' E 022°53'0 0.0
2016-Aug-30 08:31N 40°38' E 022°53'0 0.0
2016-Aug-30 07:31N 40°38' E 022°53'0 0.0
2016-Aug-30 06:31N 40°38' E 022°53'0 0.0
2016-Aug-30 05:33N 40°38' E 022°53'2 2.3
2016-Aug-30 04:33N 40°36' E 022°55'0 0.3
2016-Aug-30 03:29N 40°36' E 022°56'0 0.0
2016-Aug-30 02:29N 40°36' E 022°56'0 0.1
2016-Aug-30 01:32N 40°36' E 022°56'0 0.0
2016-Aug-30 00:32N 40°36' E 022°56'0 0.1
2016-Aug-29 23:33N 40°36' E 022°56'6 5.6
2016-Aug-29 22:33N 40°32' E 022°51'182 7.0
2016-Aug-28 20:33N 37°37' E 023°53'9 9.0
2016-Aug-28 19:33N 37°40' E 023°42'9 9.0
2016-Aug-28 18:33N 37°48' E 023°37'8 8.4
2016-Aug-28 17:33N 37°50' E 023°27'9 8.7
2016-Aug-28 16:33N 37°52' E 023°16'9 8.6
2016-Aug-28 15:33N 37°54' E 023°06'1 0.0
2016-Aug-27 12:18N 37°55' E 023°05'0 0.0
2016-Aug-27 08:24N 37°55' E 023°05'0 0.0
2016-Aug-27 04:24N 37°55' E 023°05'0 0.0
2016-Aug-27 03:30N 37°55' E 023°05'0 0.0
2016-Aug-27 00:30N 37°55' E 023°05'0 0.0
2016-Aug-26 23:30N 37°55' E 023°05'0 0.0
2016-Aug-26 22:30N 37°55' E 023°05'0 0.0
2016-Aug-26 21:30N 37°55' E 023°05'0 0.0
2016-Aug-26 16:15N 37°55' E 023°05'0 0.0
2016-Aug-26 12:33N 37°55' E 023°05'0 0.3
2016-Aug-26 11:19N 37°55' E 023°06'0 0.0
2016-Aug-26 10:31N 37°55' E 023°06'0 0.0
2016-Aug-26 09:33N 37°55' E 023°06'4 3.8
2016-Aug-26 08:33N 37°53' E 023°10'9 9.5
2016-Aug-26 07:34N 37°51' E 023°22'9 8.9
2016-Aug-26 06:33N 37°51' E 023°33'7 3.4
2016-Aug-26 04:31N 37°57' E 023°35'0 0.0
2016-Aug-26 03:31N 37°57' E 023°35'0 0.0
2016-Aug-26 02:28N 37°57' E 023°35'0 0.0
2016-Aug-26 01:31N 37°57' E 023°35'0 0.0
2016-Aug-26 00:31N 37°57' E 023°35'0 0.0
2016-Aug-25 23:31N 37°57' E 023°35'0 0.0
2016-Aug-25 22:31N 37°57' E 023°35'0 0.0
2016-Aug-25 21:31N 37°57' E 023°35'0 0.0
2016-Aug-25 20:31N 37°57' E 023°35'0 0.0
2016-Aug-25 19:31N 37°57' E 023°35'0 0.0
2016-Aug-25 18:31N 37°57' E 023°35'0 0.0
2016-Aug-25 17:31N 37°57' E 023°35'0 0.0
2016-Aug-25 16:31N 37°57' E 023°35'0 0.0
2016-Aug-25 15:31N 37°57' E 023°35'0 0.0
2016-Aug-25 14:31N 37°57' E 023°35'0 0.0
2016-Aug-25 13:31N 37°57' E 023°35'0 0.0
2016-Aug-25 12:31N 37°57' E 023°35'0 0.0
2016-Aug-25 11:31N 37°57' E 023°35'0 0.0
2016-Aug-25 10:31N 37°57' E 023°35'0 0.0
2016-Aug-25 09:31N 37°57' E 023°35'0 0.0
2016-Aug-25 08:31N 37°57' E 023°35'0 0.0
2016-Aug-25 07:31N 37°57' E 023°35'0 0.0
2016-Aug-25 06:31N 37°57' E 023°35'0 0.0
2016-Aug-25 04:25N 37°57' E 023°35'0 0.0
2016-Aug-25 03:28N 37°57' E 023°35'0 0.0
2016-Aug-25 02:31N 37°57' E 023°35'0 0.0
2016-Aug-25 01:31N 37°57' E 023°35'0 0.0
2016-Aug-25 00:31N 37°57' E 023°35'0 0.0
2016-Aug-24 23:31N 37°57' E 023°35'0 0.0
2016-Aug-24 22:31N 37°57' E 023°35'0 0.0
2016-Aug-24 21:31N 37°57' E 023°35'0 0.0
2016-Aug-24 20:31N 37°57' E 023°35'0 0.0
2016-Aug-24 19:31N 37°57' E 023°35'0 0.0
2016-Aug-24 18:28N 37°57' E 023°35'0 0.0
2016-Aug-24 17:31N 37°57' E 023°35'0 0.0
2016-Aug-24 16:31N 37°57' E 023°35'0 0.0
2016-Aug-24 15:31N 37°57' E 023°35'0 0.0
2016-Aug-24 14:31N 37°57' E 023°35'0 0.0
2016-Aug-24 13:28N 37°57' E 023°35'0 0.0
2016-Aug-24 12:31N 37°57' E 023°35'0 0.0
2016-Aug-24 11:31N 37°57' E 023°35'0 0.0
2016-Aug-24 10:31N 37°57' E 023°35'0 0.0
2016-Aug-24 09:31N 37°57' E 023°35'0 0.1
2016-Aug-24 08:31N 37°57' E 023°35'0 0.0
2016-Aug-24 07:31N 37°57' E 023°35'0 0.0
2016-Aug-24 06:31N 37°57' E 023°35'0 0.0
2016-Aug-24 04:31N 37°57' E 023°35'0 0.0
2016-Aug-24 03:28N 37°57' E 023°35'0 0.0
2016-Aug-24 02:28N 37°57' E 023°35'0 0.0
2016-Aug-24 01:31N 37°57' E 023°35'0 0.0
2016-Aug-24 00:31N 37°57' E 023°35'0 0.0
2016-Aug-23 23:31N 37°57' E 023°35'0 0.0
2016-Aug-23 22:31N 37°57' E 023°35'0 0.0
2016-Aug-23 21:28N 37°57' E 023°35'0 0.0
2016-Aug-23 20:31N 37°57' E 023°35'0 0.0
2016-Aug-23 19:31N 37°57' E 023°35'0 0.0
2016-Aug-23 18:31N 37°57' E 023°35'0 0.0
2016-Aug-23 17:31N 37°57' E 023°35'0 0.0
2016-Aug-23 16:25N 37°57' E 023°35'0 0.0
2016-Aug-23 15:28N 37°57' E 023°35'0 0.0
2016-Aug-23 14:28N 37°57' E 023°35'0 0.0
2016-Aug-23 13:31N 37°57' E 023°35'0 0.0
2016-Aug-23 12:28N 37°57' E 023°35'0 0.0
2016-Aug-23 11:31N 37°57' E 023°35'0 0.0
2016-Aug-23 10:31N 37°57' E 023°35'0 0.0
2016-Aug-23 09:31N 37°57' E 023°35'0 0.0
2016-Aug-23 08:31N 37°57' E 023°35'0 0.0
2016-Aug-23 07:31N 37°57' E 023°35'0 0.0
2016-Aug-23 06:31N 37°57' E 023°35'2 2.5
2016-Aug-23 05:33N 37°55' E 023°34'2 1.6
2016-Aug-23 04:32N 37°54' E 023°33'0 0.0
2016-Aug-23 03:32N 37°54' E 023°33'0 0.0
2016-Aug-23 02:32N 37°54' E 023°33'0 0.0
2016-Aug-23 01:32N 37°54' E 023°33'0 0.0
2016-Aug-23 00:32N 37°54' E 023°33'0 0.0
2016-Aug-22 23:32N 37°54' E 023°33'0 0.0
2016-Aug-22 22:32N 37°54' E 023°33'0 0.0
2016-Aug-22 21:32N 37°54' E 023°33'0 0.0
2016-Aug-22 20:32N 37°54' E 023°33'0 0.0
2016-Aug-22 19:32N 37°54' E 023°33'0 0.0
2016-Aug-22 18:32N 37°54' E 023°33'0 0.0
2016-Aug-22 17:32N 37°54' E 023°33'0 0.0
2016-Aug-22 16:32N 37°54' E 023°33'0 0.0
2016-Aug-22 15:32N 37°54' E 023°33'0 0.0
2016-Aug-22 14:32N 37°54' E 023°33'0 0.4
2016-Aug-22 13:34N 37°54' E 023°33'5 5.0
2016-Aug-22 12:33N 37°50' E 023°29'9 9.4
2016-Aug-22 11:33N 37°52' E 023°17'9 9.0
2016-Aug-22 10:34N 37°54' E 023°06'1 0.0
2016-Aug-21 10:33N 37°55' E 023°05'0 0.1
2016-Aug-21 09:33N 37°55' E 023°05'1 0.5
2016-Aug-21 08:33N 37°55' E 023°05'0 0.4
2016-Aug-21 07:28N 37°54' E 023°05'0 0.0
2016-Aug-21 06:28N 37°54' E 023°05'0 0.0
2016-Aug-21 05:31N 37°54' E 023°05'0 0.0
2016-Aug-21 04:31N 37°54' E 023°05'0 0.0
2016-Aug-21 03:31N 37°54' E 023°05'0 0.0
2016-Aug-21 02:28N 37°54' E 023°05'0 0.0
2016-Aug-21 01:31N 37°54' E 023°05'0 0.0
2016-Aug-21 00:31N 37°54' E 023°05'0 0.1
2016-Aug-20 23:28N 37°54' E 023°05'0 0.0
2016-Aug-20 22:31N 37°54' E 023°05'0 0.0
2016-Aug-20 21:31N 37°54' E 023°05'0 0.0
2016-Aug-20 20:28N 37°54' E 023°05'0 0.0
2016-Aug-20 19:22N 37°54' E 023°05'0 0.0
2016-Aug-20 18:28N 37°54' E 023°05'0 0.0
2016-Aug-20 17:28N 37°54' E 023°05'0 0.0
2016-Aug-20 16:28N 37°54' E 023°05'0 0.0
2016-Aug-20 15:31N 37°54' E 023°05'0 0.1
2016-Aug-20 14:31N 37°54' E 023°05'0 0.0
2016-Aug-20 11:16N 37°54' E 023°05'0 0.6
2016-Aug-20 10:33N 37°54' E 023°05'  

Dump ship's entire track history